Startpagina
METAR-TAF:

METAR-TAF

Vliegvelden :

High Level, Alberta, Canada

breedte: 58-37N, lengte: 117-10W, hoogte: 338 m

Actueel weer

Dit bericht is 38 minuten geleden gemaakt, om 10:00 UTC
Wind 5 kt uit het noordnoordoosten
Temperatuur -13°C
Vochtigheid 72%
Druk 1014 hPa
Zicht: 14.5 km
Geheel bewolkt op 7500 ft

METAR: CYOJ 051000Z AUTO 03005KT 9SM OVC075 M13/M17 A2995 RMK SLP171

Tijdstip: 04:38 (10:38 UTC)

Verwachting

Dit bericht is 4 uur en het 0 minuten geleden gemaakt, om 06:38 UTC
Verwachting geldig van 05 om 07 UTC tot 05 om 19 UTC
Wind 3 kt uit variabele richting
Zicht: 10 km
Verspreide wolken op 9000 ft
Tijdelijke
van 05 om 07 UTC tot 05 om 19 UTC
Gebroken wolken op 6000 ft
Gebroken wolken op 9000 ft

TAF: CYOJ 050638Z 0507/0519 VRB03KT P6SM SCT090 TEMPO 0507/0519 BKN060 BKN090 RMK FCST BASED ON AUTO OBS. NXT FCST BY 051300Z

Waarnemingen en weersverwachtingen van meer dan 4000 vliegvelden (METAR en TAF).

De beschikbare stations zijn de gele en rode punten op de kaart.

Ga met uw muis naar het station om de naam te zien.

Klik dan om waarnemingen en weersverwachtingen te zien.

kaart wijzigen: klik op de groene knoppen met een zwart kruis om in te zoomen, op de groene knop met een streepje om uit te zoomen of op de groene pijlen voor aangrenzende kaarten.


METAR-TAF: